createdAt,value
2022-09-24T00:00:14.427Z,9.73
2022-09-24T00:02:46.364Z,11.38
2022-09-24T00:05:18.307Z,10.80
2022-09-24T00:07:50.270Z,10.13
2022-09-24T00:10:23.081Z,9.27
2022-09-24T00:12:55.034Z,10.70
2022-09-24T00:15:27.045Z,10.75
2022-09-24T00:17:59.378Z,10.43
2022-09-24T00:20:32.107Z,10.50
2022-09-24T00:23:10.052Z,11.00
2022-09-24T00:26:05.814Z,10.50
2022-09-24T00:28:58.800Z,10.15
2022-09-24T00:31:31.672Z,9.63
2022-09-24T00:34:04.336Z,10.65
2022-09-24T00:36:37.299Z,10.30
2022-09-24T00:39:09.229Z,11.30
2022-09-24T00:41:47.055Z,12.35
2022-09-24T00:44:38.267Z,14.13
2022-09-24T00:47:33.885Z,13.70
2022-09-24T00:50:18.010Z,15.23
2022-09-24T00:53:05.093Z,13.93
2022-09-24T00:55:45.584Z,14.15
2022-09-24T00:58:23.027Z,13.80
2022-09-24T01:01:01.154Z,13.90
2022-09-24T01:03:42.331Z,12.70
2022-09-24T01:06:14.962Z,14.48
2022-09-24T01:08:47.564Z,13.70
2022-09-24T01:11:52.469Z,15.70
2022-09-24T01:14:52.398Z,11.45
2022-09-24T01:17:52.623Z,12.57
2022-09-24T01:20:52.682Z,12.05
2022-09-24T01:23:51.931Z,11.65
2022-09-24T01:27:01.719Z,13.13
2022-09-24T01:29:46.816Z,12.20
2022-09-24T01:32:37.387Z,12.13
2022-09-24T01:35:22.023Z,12.52
2022-09-24T01:38:33.647Z,13.05
2022-09-24T01:41:12.764Z,13.00
2022-09-24T01:43:48.980Z,13.80
2022-09-24T01:46:22.764Z,12.00
2022-09-24T01:48:55.208Z,12.55
2022-09-24T01:51:34.495Z,13.35
2022-09-24T01:54:33.019Z,12.55
2022-09-24T01:57:19.631Z,14.75
2022-09-24T02:00:00.293Z,12.23
2022-09-24T02:02:58.143Z,12.50
2022-09-24T02:05:55.035Z,12.90
2022-09-24T02:08:44.957Z,12.55
2022-09-24T02:11:22.529Z,13.07
2022-09-24T02:14:08.828Z,13.65
2022-09-24T02:16:47.845Z,12.82
2022-09-24T02:19:25.131Z,12.68
2022-09-24T02:21:58.990Z,11.43
2022-09-24T02:25:01.090Z,13.05
2022-09-24T02:27:35.285Z,12.63
2022-09-24T02:30:08.361Z,11.85
2022-09-24T02:32:44.076Z,12.00
2022-09-24T02:35:16.591Z,11.43
2022-09-24T02:37:48.652Z,12.80
2022-09-24T02:40:20.879Z,12.02
2022-09-24T02:42:53.021Z,12.35
2022-09-24T02:45:25.259Z,12.65
2022-09-24T02:47:57.644Z,13.20
2022-09-24T02:50:29.673Z,12.55
2022-09-24T02:53:02.024Z,13.02
2022-09-24T02:55:34.040Z,12.32
2022-09-24T02:58:05.947Z,16.77
2022-09-24T03:00:37.949Z,13.25
2022-09-24T03:03:10.112Z,14.27
2022-09-24T03:05:42.052Z,12.90
2022-09-24T03:08:13.880Z,12.20
2022-09-24T03:10:46.782Z,13.27
2022-09-24T03:13:19.174Z,11.57
2022-09-24T03:15:51.555Z,11.70
2022-09-24T03:18:23.474Z,12.63
2022-09-24T03:21:00.703Z,12.77
2022-09-24T03:23:36.090Z,12.18
2022-09-24T03:26:09.265Z,12.70
2022-09-24T03:28:42.555Z,13.23
2022-09-24T03:31:15.206Z,13.32
2022-09-24T03:33:49.311Z,12.93
2022-09-24T03:36:23.392Z,13.00
2022-09-24T03:38:57.789Z,13.68
2022-09-24T03:41:29.723Z,12.88
2022-09-24T03:44:01.860Z,13.65
2022-09-24T03:46:33.937Z,14.10
2022-09-24T03:49:05.872Z,14.23
2022-09-24T03:51:37.733Z,14.23
2022-09-24T03:54:09.634Z,13.52
2022-09-24T03:56:43.133Z,13.13
2022-09-24T03:59:15.243Z,13.63
2022-09-24T04:01:47.176Z,15.55
2022-09-24T04:04:19.111Z,15.18
2022-09-24T04:06:52.701Z,15.98
2022-09-24T04:09:24.916Z,13.63
2022-09-24T04:11:58.347Z,13.80
2022-09-24T04:14:30.209Z,13.40
2022-09-24T04:17:02.203Z,13.68
2022-09-24T04:19:34.415Z,12.65
2022-09-24T04:22:06.443Z,14.73
2022-09-24T04:24:38.398Z,16.70
2022-09-24T04:27:10.260Z,15.30
2022-09-24T04:29:42.352Z,16.65
2022-09-24T04:32:14.483Z,16.25
2022-09-24T04:34:46.503Z,16.10
2022-09-24T04:37:18.374Z,14.32
2022-09-24T04:39:50.525Z,14.50
2022-09-24T04:42:22.384Z,15.38
2022-09-24T04:44:56.219Z,15.63
2022-09-24T04:47:28.323Z,15.07
2022-09-24T04:50:02.192Z,15.80
2022-09-24T04:52:35.455Z,14.63
2022-09-24T04:55:08.707Z,14.85
2022-09-24T04:57:41.326Z,15.10
2022-09-24T05:00:17.380Z,15.88
2022-09-24T05:02:59.348Z,15.30
2022-09-24T05:05:33.905Z,17.92
2022-09-24T05:08:06.166Z,15.00
2022-09-24T05:10:38.088Z,14.82
2022-09-24T05:13:10.244Z,15.63
2022-09-24T05:15:43.383Z,16.27
2022-09-24T05:18:15.542Z,15.13
2022-09-24T05:20:47.476Z,14.88
2022-09-24T05:23:20.179Z,15.10
2022-09-24T05:26:10.679Z,15.65
2022-09-24T05:29:02.439Z,17.17
2022-09-24T05:31:34.822Z,16.00
2022-09-24T05:34:07.638Z,15.90
2022-09-24T05:36:40.113Z,16.33
2022-09-24T05:39:14.612Z,15.18
2022-09-24T05:41:46.551Z,15.18
2022-09-24T05:44:21.550Z,16.13
2022-09-24T05:46:53.923Z,15.63
2022-09-24T05:49:26.244Z,15.45
2022-09-24T05:51:58.359Z,15.35
2022-09-24T05:54:30.233Z,15.95
2022-09-24T05:57:02.190Z,15.45
2022-09-24T05:59:34.260Z,14.50
2022-09-24T06:02:06.674Z,14.75
2022-09-24T06:04:39.498Z,14.88
2022-09-24T06:07:11.616Z,13.52
2022-09-24T06:09:44.146Z,13.60
2022-09-24T06:12:25.690Z,15.93
2022-09-24T06:14:57.842Z,14.32
2022-09-24T06:17:31.313Z,14.38
2022-09-24T06:20:03.348Z,15.38
2022-09-24T06:22:35.705Z,16.38
2022-09-24T06:25:08.583Z,14.00
2022-09-24T06:27:40.532Z,16.05
2022-09-24T06:30:12.696Z,14.50
2022-09-24T06:32:44.841Z,14.35
2022-09-24T06:35:16.792Z,14.48
2022-09-24T06:37:49.242Z,14.10
2022-09-24T06:40:26.073Z,14.55
2022-09-24T06:42:58.925Z,17.63
2022-09-24T06:45:30.948Z,15.95
2022-09-24T06:48:05.414Z,13.73
2022-09-24T06:50:41.120Z,15.23
2022-09-24T06:53:16.004Z,13.68
2022-09-24T06:55:48.865Z,13.48
2022-09-24T06:58:21.471Z,14.20
2022-09-24T07:00:59.832Z,13.32
2022-09-24T07:03:34.544Z,13.82
2022-09-24T07:06:07.347Z,12.20
2022-09-24T07:08:39.604Z,13.63
2022-09-24T07:11:13.555Z,13.77
2022-09-24T07:13:46.201Z,15.50
2022-09-24T07:16:18.207Z,12.98
2022-09-24T07:18:50.166Z,13.18
2022-09-24T07:21:22.295Z,13.75
2022-09-24T07:23:58.419Z,13.98
2022-09-24T07:27:03.982Z,12.95
2022-09-24T07:29:36.533Z,12.93
2022-09-24T07:32:09.125Z,13.05
2022-09-24T07:34:41.344Z,15.35
2022-09-24T07:37:13.364Z,11.77
2022-09-24T07:39:45.712Z,12.60
2022-09-24T07:42:18.234Z,12.25
2022-09-24T07:44:50.634Z,11.45
2022-09-24T07:47:23.436Z,12.88
2022-09-24T07:49:55.647Z,11.25
2022-09-24T07:52:27.736Z,12.32
2022-09-24T07:55:00.047Z,12.50
2022-09-24T07:57:32.386Z,13.05
2022-09-24T08:00:04.827Z,11.85
2022-09-24T08:02:37.626Z,12.15
2022-09-24T08:05:10.237Z,11.85
2022-09-24T08:07:43.080Z,10.88
2022-09-24T08:10:31.407Z,10.23
2022-09-24T08:13:05.583Z,9.05
2022-09-24T08:15:37.817Z,9.60
2022-09-24T08:18:10.462Z,7.57
2022-09-24T08:20:42.866Z,8.15
2022-09-24T08:23:14.924Z,8.25
2022-09-24T08:25:48.161Z,8.00
2022-09-24T08:28:20.298Z,9.50
2022-09-24T08:30:52.385Z,8.52
2022-09-24T08:33:32.529Z,10.15
2022-09-24T08:36:09.020Z,9.40
2022-09-24T08:38:44.759Z,9.13
2022-09-24T08:41:25.956Z,9.57
2022-09-24T08:44:46.144Z,8.35
2022-09-24T08:47:45.811Z,7.60
2022-09-24T08:50:30.235Z,7.60
2022-09-24T08:53:50.446Z,8.73
2022-09-24T08:56:37.322Z,8.60
2022-09-24T08:59:33.933Z,8.30
2022-09-24T09:02:28.011Z,7.22
2022-09-24T09:05:44.736Z,8.63
2022-09-24T09:11:59.335Z,7.57
2022-09-24T09:15:01.792Z,7.27
2022-09-24T09:18:10.468Z,6.40
2022-09-24T09:21:16.354Z,7.13
2022-09-24T09:24:02.298Z,6.87
2022-09-24T09:26:50.916Z,6.20
2022-09-24T09:29:28.214Z,5.27
2022-09-24T09:32:40.236Z,5.70
2022-09-24T09:35:55.324Z,6.53
2022-09-24T09:39:22.377Z,5.53
2022-09-24T09:42:22.740Z,6.23
2022-09-24T09:45:27.883Z,5.60
2022-09-24T09:48:08.367Z,4.83
2022-09-24T09:51:06.928Z,4.63
2022-09-24T09:53:56.871Z,4.13
2022-09-24T09:56:36.246Z,5.13
2022-09-24T09:59:13.477Z,4.80
2022-09-24T10:01:56.441Z,4.77
2022-09-24T10:04:29.209Z,3.80
2022-09-24T10:07:15.546Z,3.50
2022-09-24T10:10:02.854Z,3.70
2022-09-24T10:12:50.189Z,4.07
2022-09-24T10:15:56.287Z,3.73
2022-09-24T10:18:36.085Z,3.97
2022-09-24T10:21:28.307Z,4.03
2022-09-24T10:24:09.197Z,3.70
2022-09-24T10:26:47.725Z,3.80
2022-09-24T10:29:45.352Z,3.70
2022-09-24T10:32:37.752Z,5.65
2022-09-24T10:35:23.476Z,3.97
2022-09-24T10:38:19.330Z,3.43
2022-09-24T10:40:52.590Z,6.80
2022-09-24T10:43:25.274Z,3.88
2022-09-24T10:46:21.740Z,3.90
2022-09-24T10:49:34.252Z,3.47
2022-09-24T10:52:25.974Z,4.10
2022-09-24T10:55:39.400Z,4.75
2022-09-24T10:59:08.181Z,3.78
2022-09-24T11:02:25.624Z,3.27
2022-09-24T11:05:20.392Z,4.30
2022-09-24T11:07:59.833Z,3.63
2022-09-24T11:11:10.188Z,3.50
2022-09-24T11:14:31.428Z,4.27
2022-09-24T11:17:33.564Z,4.17
2022-09-24T11:20:37.273Z,7.50
2022-09-24T11:23:34.385Z,3.37
2022-09-24T11:26:32.182Z,3.73
2022-09-24T11:29:48.767Z,4.47
2022-09-24T11:33:08.657Z,4.13
2022-09-24T11:36:10.930Z,4.30
2022-09-24T11:39:47.535Z,4.57
2022-09-24T11:42:53.714Z,3.10
2022-09-24T11:45:49.720Z,3.10
2022-09-24T11:48:48.445Z,3.43
2022-09-24T11:52:12.387Z,4.00
2022-09-24T11:55:22.852Z,3.87
2022-09-24T11:58:30.890Z,3.57
2022-09-24T12:01:28.781Z,3.93
2022-09-24T12:04:17.106Z,3.83
2022-09-24T12:07:13.003Z,4.63
2022-09-24T12:09:55.864Z,2.80
2022-09-24T12:12:50.681Z,3.50
2022-09-24T12:15:31.069Z,3.10
2022-09-24T12:18:25.032Z,3.53
2022-09-24T12:21:07.520Z,3.70
2022-09-24T12:23:44.988Z,2.80
2022-09-24T12:26:23.210Z,3.30
2022-09-24T12:29:26.553Z,3.60
2022-09-24T12:32:56.100Z,6.73
2022-09-24T12:35:50.806Z,4.13
2022-09-24T12:38:42.515Z,5.30
2022-09-24T12:41:32.767Z,4.43
2022-09-24T12:44:10.303Z,4.90
2022-09-24T12:46:54.467Z,6.17
2022-09-24T12:49:37.277Z,11.30
2022-09-24T12:52:22.806Z,10.43
2022-09-24T12:55:20.497Z,7.77
2022-09-24T12:58:04.241Z,6.93
2022-09-24T13:00:48.221Z,8.20
2022-09-24T13:03:36.946Z,6.03
2022-09-24T13:06:45.150Z,6.00
2022-09-24T13:09:34.788Z,6.75
2022-09-24T13:12:18.102Z,6.90
2022-09-24T13:15:03.057Z,7.83
2022-09-24T13:17:40.774Z,6.80
2022-09-24T13:20:28.411Z,6.07
2022-09-24T13:23:19.674Z,7.00
2022-09-24T13:26:26.003Z,7.70
2022-09-24T13:29:21.900Z,6.43
2022-09-24T13:32:02.902Z,6.60
2022-09-24T13:34:36.494Z,5.60
2022-09-24T13:37:27.336Z,6.33
2022-09-24T13:40:19.407Z,6.13
2022-09-24T13:43:04.994Z,6.03
2022-09-24T13:45:45.525Z,6.60
2022-09-24T13:48:51.808Z,7.90
2022-09-24T13:51:31.317Z,7.63
2022-09-24T13:54:31.472Z,7.90
2022-09-24T13:57:18.836Z,7.80
2022-09-24T14:00:23.098Z,8.43
2022-09-24T14:03:19.256Z,9.00
2022-09-24T14:06:14.778Z,8.50
2022-09-24T14:08:49.661Z,8.17
2022-09-24T14:11:26.917Z,7.10
2022-09-24T14:14:10.911Z,7.40
2022-09-24T14:16:47.790Z,7.80
2022-09-24T14:19:19.899Z,7.23
2022-09-24T14:21:56.353Z,7.20
2022-09-24T14:24:33.113Z,6.33
2022-09-24T14:27:19.509Z,7.70
2022-09-24T14:30:05.996Z,6.90
2022-09-24T14:32:51.709Z,6.40
2022-09-24T14:35:38.560Z,6.77
2022-09-24T14:38:19.294Z,7.63
2022-09-24T14:41:03.260Z,6.87
2022-09-24T14:43:49.100Z,7.47
2022-09-24T14:46:34.219Z,6.73
2022-09-24T14:49:21.090Z,6.80
2022-09-24T14:52:02.574Z,7.07
2022-09-24T14:54:41.126Z,6.97
2022-09-24T14:57:19.235Z,6.50
2022-09-24T14:59:55.361Z,6.07
2022-09-24T15:06:25.652Z,5.90
2022-09-24T15:09:04.935Z,6.93
2022-09-24T15:11:48.686Z,6.60
2022-09-24T15:14:27.407Z,6.93
2022-09-24T15:17:19.497Z,7.03
2022-09-24T15:19:56.648Z,6.70
2022-09-24T15:22:30.142Z,7.97
2022-09-24T15:25:02.851Z,7.87
2022-09-24T15:27:42.165Z,7.93
2022-09-24T15:30:21.280Z,8.03
2022-09-24T15:32:55.280Z,7.53
2022-09-24T15:35:30.401Z,8.40
2022-09-24T15:38:02.853Z,8.47
2022-09-24T15:40:36.597Z,6.93
2022-09-24T15:43:24.811Z,6.77
2022-09-24T15:45:57.251Z,7.30
2022-09-24T15:48:29.572Z,7.87
2022-09-24T15:51:07.245Z,8.70
2022-09-24T15:53:46.086Z,8.67
2022-09-24T15:56:19.621Z,9.10
2022-09-24T15:59:14.840Z,7.50
2022-09-24T16:01:49.233Z,8.40
2022-09-24T16:04:22.839Z,7.97
2022-09-24T16:06:54.842Z,8.83
2022-09-24T16:09:27.111Z,8.20
2022-09-24T16:11:59.417Z,8.37
2022-09-24T16:15:13.109Z,8.40
2022-09-24T16:17:49.864Z,8.27
2022-09-24T16:20:22.203Z,9.33
2022-09-24T16:22:54.165Z,8.50
2022-09-24T16:25:27.491Z,8.90
2022-09-24T16:27:59.769Z,10.10
2022-09-24T16:30:36.224Z,10.20
2022-09-24T16:33:10.447Z,9.33
2022-09-24T16:35:42.551Z,9.63
2022-09-24T16:38:17.720Z,8.90
2022-09-24T16:40:59.898Z,9.65
2022-09-24T16:43:33.313Z,8.68
2022-09-24T16:46:09.009Z,9.32
2022-09-24T16:48:42.549Z,9.23
2022-09-24T16:51:19.290Z,10.32
2022-09-24T16:53:57.619Z,9.90
2022-09-24T16:56:29.737Z,10.17
2022-09-24T16:59:02.363Z,9.38
2022-09-24T17:01:34.463Z,11.13
2022-09-24T17:04:06.714Z,10.70
2022-09-24T17:06:39.901Z,13.07
2022-09-24T17:09:31.064Z,12.95
2022-09-24T17:12:23.062Z,12.50
2022-09-24T17:14:57.761Z,11.50
2022-09-24T17:17:54.588Z,11.90
2022-09-24T17:20:27.487Z,11.80
2022-09-24T17:23:00.972Z,11.63
2022-09-24T17:25:33.944Z,12.00
2022-09-24T17:28:07.294Z,11.30
2022-09-24T17:30:41.960Z,11.75
2022-09-24T17:34:08.181Z,10.77
2022-09-24T17:36:41.503Z,13.27
2022-09-24T17:39:14.404Z,16.38
2022-09-24T17:41:47.359Z,19.42
2022-09-24T17:44:19.773Z,15.95
2022-09-24T17:46:52.198Z,14.68
2022-09-24T17:49:24.620Z,13.90
2022-09-24T17:52:01.299Z,13.45
2022-09-24T17:54:34.713Z,109.85
2022-09-24T17:57:07.488Z,77.32
2022-09-24T17:59:39.968Z,64.43
2022-09-24T18:02:13.319Z,44.13
2022-09-24T18:04:45.545Z,24.38
2022-09-24T18:07:19.375Z,17.35
2022-09-24T18:09:56.095Z,15.10
2022-09-24T18:12:28.381Z,13.70
2022-09-24T18:15:00.562Z,33.65
2022-09-24T18:17:33.970Z,50.53
2022-09-24T18:20:06.727Z,63.45
2022-09-24T18:22:39.850Z,55.05
2022-09-24T18:25:13.859Z,18.45
2022-09-24T18:27:46.542Z,13.70
2022-09-24T18:30:18.935Z,12.40
2022-09-24T18:32:50.971Z,13.55
2022-09-24T18:35:23.062Z,12.32
2022-09-24T18:37:55.131Z,12.63
2022-09-24T18:40:27.345Z,11.55
2022-09-24T18:42:59.595Z,12.95
2022-09-24T18:45:31.790Z,12.80
2022-09-24T18:48:04.901Z,13.50
2022-09-24T18:50:43.418Z,12.10
2022-09-24T18:53:15.712Z,13.57
2022-09-24T18:55:47.986Z,15.85
2022-09-24T18:58:20.369Z,18.70
2022-09-24T19:00:58.790Z,21.50
2022-09-24T19:03:33.065Z,17.40
2022-09-24T19:06:06.975Z,17.30
2022-09-24T19:08:40.058Z,16.00
2022-09-24T19:11:14.398Z,14.88
2022-09-24T19:13:50.850Z,16.00
2022-09-24T19:16:24.714Z,15.30
2022-09-24T19:18:59.055Z,13.52
2022-09-24T19:21:32.022Z,10.50
2022-09-24T19:24:06.090Z,12.85
2022-09-24T19:26:38.626Z,14.10
2022-09-24T19:29:11.484Z,12.13
2022-09-24T19:31:45.799Z,10.05
2022-09-24T19:34:20.699Z,10.05
2022-09-24T19:36:55.166Z,11.52
2022-09-24T19:39:29.165Z,11.70
2022-09-24T19:42:01.957Z,12.65
2022-09-24T19:44:35.336Z,13.20
2022-09-24T19:47:08.358Z,14.98
2022-09-24T19:49:40.689Z,13.23
2022-09-24T19:52:13.008Z,13.13
2022-09-24T19:54:45.288Z,12.23
2022-09-24T19:57:20.975Z,12.63
2022-09-24T19:59:53.408Z,11.85
2022-09-24T20:02:25.953Z,13.43
2022-09-24T20:04:58.349Z,12.30
2022-09-24T20:07:30.440Z,12.82
2022-09-24T20:10:02.748Z,12.30
2022-09-24T20:12:35.901Z,12.50
2022-09-24T20:15:10.542Z,12.50
2022-09-24T20:17:43.034Z,11.27
2022-09-24T20:20:15.154Z,12.63
2022-09-24T20:27:10.547Z,13.48
2022-09-24T20:30:02.412Z,13.10
2022-09-24T20:32:35.635Z,11.43
2022-09-24T20:35:07.970Z,11.95
2022-09-24T20:37:40.496Z,11.63
2022-09-24T20:40:13.481Z,11.65
2022-09-24T20:42:45.590Z,12.27
2022-09-24T20:45:17.759Z,11.90
2022-09-24T20:47:50.381Z,11.63
2022-09-24T20:50:23.633Z,13.50
2022-09-24T20:52:55.852Z,12.05
2022-09-24T20:55:27.979Z,10.20
2022-09-24T20:58:00.617Z,10.93
2022-09-24T21:00:35.880Z,11.30
2022-09-24T21:03:39.251Z,12.68
2022-09-24T21:06:11.772Z,11.93
2022-09-24T21:08:46.302Z,12.65
2022-09-24T21:11:21.601Z,10.55
2022-09-24T21:14:00.609Z,12.43
2022-09-24T21:16:34.680Z,12.55
2022-09-24T21:19:08.293Z,11.90
2022-09-24T21:21:42.453Z,12.20
2022-09-24T21:24:15.505Z,11.70
2022-09-24T21:26:47.594Z,12.05
2022-09-24T21:29:23.097Z,10.95
2022-09-24T21:31:55.175Z,10.60
2022-09-24T21:34:27.495Z,13.02
2022-09-24T21:37:00.133Z,12.68
2022-09-24T21:39:32.468Z,12.02
2022-09-24T21:42:05.405Z,12.15
2022-09-24T21:44:37.641Z,12.50
2022-09-24T21:47:09.733Z,14.77
2022-09-24T21:49:41.765Z,15.82
2022-09-24T21:52:14.539Z,16.42
2022-09-24T21:54:46.967Z,15.15
2022-09-24T21:57:18.896Z,14.68
2022-09-24T21:59:59.801Z,16.27
2022-09-24T22:02:32.573Z,15.63
2022-09-24T22:05:05.269Z,18.42
2022-09-24T22:07:38.175Z,17.80
2022-09-24T22:10:10.358Z,18.70
2022-09-24T22:12:43.799Z,19.02
2022-09-24T22:15:17.544Z,16.08
2022-09-24T22:17:50.434Z,16.23
2022-09-24T22:20:22.582Z,14.77
2022-09-24T22:22:55.161Z,14.90
2022-09-24T22:25:27.291Z,15.65
2022-09-24T22:27:59.197Z,13.88
2022-09-24T22:30:31.813Z,14.60
2022-09-24T22:33:03.804Z,16.02
2022-09-24T22:35:49.682Z,14.48
2022-09-24T22:38:25.986Z,13.48
2022-09-24T22:41:05.318Z,14.85
2022-09-24T22:43:39.316Z,14.15
2022-09-24T22:46:13.194Z,13.75
2022-09-24T22:48:47.355Z,14.15
2022-09-24T22:51:19.383Z,14.52
2022-09-24T22:53:53.846Z,13.60
2022-09-24T22:56:27.405Z,13.15
2022-09-24T22:59:01.555Z,14.25
2022-09-24T23:01:39.155Z,14.50
2022-09-24T23:04:14.782Z,14.68
2022-09-24T23:06:46.735Z,14.43
2022-09-24T23:09:20.586Z,15.27
2022-09-24T23:11:53.476Z,14.65
2022-09-24T23:14:27.302Z,14.90
2022-09-24T23:16:59.298Z,15.63
2022-09-24T23:19:48.672Z,16.00
2022-09-24T23:22:22.416Z,14.75
2022-09-24T23:24:54.407Z,14.13
2022-09-24T23:27:27.708Z,15.20
2022-09-24T23:30:01.362Z,14.63
2022-09-24T23:32:33.419Z,15.77
2022-09-24T23:35:05.688Z,15.85
2022-09-24T23:37:37.929Z,15.18
2022-09-24T23:40:10.629Z,15.50
2022-09-24T23:42:42.585Z,14.05
2022-09-24T23:45:15.074Z,13.70
2022-09-24T23:47:48.013Z,14.80
2022-09-24T23:50:20.070Z,15.90
2022-09-24T23:52:51.920Z,14.90
2022-09-24T23:55:23.789Z,14.77
2022-09-24T23:57:55.691Z,14.70
